Kake, AK (99830)

4:02 AM AKDT on July 25, 2014 (GMT -0800)
Kake (PAFE) Elev 171 ft | 56.96 °N, 133.91 °W | Change Station

Current weather conditions updated 6 minutes ago

Mostly Cloudy
Mostly Cloudy
54 °F
Feels Like 54 °F
N
7
Wind Variable Wind from East

Today is forecast to be nearly the same temperature as yesterday. Cloudy with rain.

Today
High -- | Low -- °F
--% Chance of Precip.
Yesterday
High -- | Low -- °F
Precip. -- in
4:41 AM 9:21 PM
Waning Crescent, 2% visible
Pressure 29.97 in
Visibility 10.0 miles
Clouds Mostly Cloudy 3500 ft
Dew Point 48 °F
Humidity 82%
Rainfall 0.00 in
Snow Depth Not available.
UV 0 out of 12
Pollen Not available.
Air Quality Not available.
Flu Activity Not available.
METAR PAFE 251156Z AUTO 10006KT 10SM BKN035 12/09 A2997 RMK AO1 70006 10120 20100 57007

More Conditions Fewer Conditions

Pressure 29.97 in
Visibility 10.0 miles
Clouds Mostly Cloudy 3500 ft
Dew Point 48 °F
Humidity 82%
Rainfall 0.00 in
Snow Depth Not available.
UV 0 out of 12
Pollen Not available.
Air Quality Not available.
Flu Activity Not available.
METAR PAFE 251156Z AUTO 10006KT 10SM BKN035 12/09 A2997 RMK AO1 70006 10120 20100 57007

More Conditions Fewer Conditions

10-Day Weather Forecast

Almanac

Astronomy

Jul. 25, 2014 Rise Set
Actual Time 4:41 AM AKDT 9:21 PM AKDT
Civil Twilight 3:47 AM AKDT 10:15 PM AKDT
Nautical Twilight 2:12 AM AKDT 11:47 PM AKDT
Astronomical Twilight Sun does not rise Sun does not rise
Moon 3:57 AM AKDT 8:09 PM AKDT
Length of Visible Light 18h 27m
Length of Day
16h 40m
Tomorrow will be 3m 45s shorter.
Waning Crescent, 2% of the Moon is Illuminated
Today
Waning Crescent
Jul 26
New
Aug 3
First Quarter
Aug 10
Full
Aug 17
Last Quarter

Today's Extremes

State Highs State Lows

Community

WunderPhotos

Upload Photos

1,737,299 photos uploaded!

Nearby

Snow Depth

Station Depth Elevation
Long Lake 0 in 820 ft
Upper Tsaina River 0 in 1750 ft
Moraine 0 in 2100 ft
Grandview 4 in 1100 ft
Grouse Creek Divide 0 in 700 ft

Earthquake Activity

City Distance Mag. Time & Date
No recent earthquake activity has been reported nearby.
Minimum magnitude displayed is 2.5.

Coastal Water Temperatures

Place Temperature
No Stations Reporting

Nearby Weather Stations

Station Location Temp. Dew Point Humidity Wind Precip. Elev Updated Type
RAWS KAKE AK, Kake, AK 51 °F 50 °F 98% NNE  at  2 mph 0.00 in / hr 399 ft 2:55 AM AKDT MADIS
MARITIME , Kake, AK 54 °F - - SE  at  7 mph 0.00 in / hr 22 ft 3:00 AM AKDT MADIS

Show More Stations Show Fewer Stations